sensor_id;sensor_type;location;lat;lon;timestamp;pressure;altitude;pressure_sealevel;temperature;humidity
10060;BME280;5069;49.306;8.636;2023-12-14T00:02:01;99567.41;;;8.10;100.00
10060;BME280;5069;49.306;8.636;2023-12-14T00:05:03;99567.59;;;8.06;100.00
10060;BME280;5069;49.306;8.636;2023-12-14T00:08:04;99568.50;;;8.05;100.00
10060;BME280;5069;49.306;8.636;2023-12-14T00:11:07;99571.16;;;8.03;100.00
10060;BME280;5069;49.306;8.636;2023-12-14T00:14:09;99577.41;;;8.01;100.00
10060;BME280;5069;49.306;8.636;2023-12-14T00:17:11;99589.72;;;7.99;100.00
10060;BME280;5069;49.306;8.636;2023-12-14T00:20:12;99582.75;;;7.98;100.00
10060;BME280;5069;49.306;8.636;2023-12-14T00:23:15;99583.56;;;8.00;100.00
10060;BME280;5069;49.306;8.636;2023-12-14T00:26:17;99594.06;;;8.00;100.00
10060;BME280;5069;49.306;8.636;2023-12-14T00:29:18;99593.16;;;8.01;100.00
10060;BME280;5069;49.306;8.636;2023-12-14T00:32:20;99598.28;;;8.04;100.00
10060;BME280;5069;49.306;8.636;2023-12-14T00:35:21;99599.09;;;8.06;100.00
10060;BME280;5069;49.306;8.636;2023-12-14T00:38:23;99604.34;;;8.06;100.00
10060;BME280;5069;49.306;8.636;2023-12-14T00:41:24;99599.22;;;8.03;100.00
10060;BME280;5069;49.306;8.636;2023-12-14T00:44:26;99605.47;;;7.99;100.00
10060;BME280;5069;49.306;8.636;2023-12-14T00:47:27;99609.00;;;7.98;100.00
10060;BME280;5069;49.306;8.636;2023-12-14T00:50:29;99620.41;;;7.97;100.00
10060;BME280;5069;49.306;8.636;2023-12-14T00:53:31;99619.59;;;7.95;100.00
10060;BME280;5069;49.306;8.636;2023-12-14T00:56:32;99626.63;;;7.94;100.00
10060;BME280;5069;49.306;8.636;2023-12-14T00:59:34;99630.09;;;7.95;100.00
10060;BME280;5069;49.306;8.636;2023-12-14T01:02:36;99642.50;;;7.91;100.00
10060;BME280;5069;49.306;8.636;2023-12-14T01:05:37;99644.13;;;7.94;100.00
10060;BME280;5069;49.306;8.636;2023-12-14T01:08:40;99652.00;;;7.94;100.00
10060;BME280;5069;49.306;8.636;2023-12-14T01:11:42;99658.06;;;7.96;100.00
10060;BME280;5069;49.306;8.636;2023-12-14T01:14:43;99663.31;;;7.96;100.00
10060;BME280;5069;49.306;8.636;2023-12-14T01:17:44;99672.09;;;7.95;100.00
10060;BME280;5069;49.306;8.636;2023-12-14T01:20:46;99668.66;;;7.93;100.00
10060;BME280;5069;49.306;8.636;2023-12-14T01:23:48;99680.00;;;7.93;100.00
10060;BME280;5069;49.306;8.636;2023-12-14T01:26:50;99682.59;;;7.95;100.00
10060;BME280;5069;49.306;8.636;2023-12-14T01:29:51;99691.28;;;7.97;100.00
10060;BME280;5069;49.306;8.636;2023-12-14T01:32:53;99687.72;;;7.98;100.00
10060;BME280;5069;49.306;8.636;2023-12-14T01:35:54;99697.25;;;8.00;100.00
10060;BME280;5069;49.306;8.636;2023-12-14T01:38:56;99696.31;;;8.03;100.00
10060;BME280;5069;49.306;8.636;2023-12-14T01:41:57;99710.22;;;8.05;100.00
10060;BME280;5069;49.306;8.636;2023-12-14T01:44:59;99711.13;;;8.04;100.00
10060;BME280;5069;49.306;8.636;2023-12-14T01:48:00;99721.63;;;8.04;100.00
10060;BME280;5069;49.306;8.636;2023-12-14T01:51:02;99716.38;;;8.04;100.00
10060;BME280;5069;49.306;8.636;2023-12-14T01:54:04;99728.59;;;8.05;100.00
10060;BME280;5069;49.306;8.636;2023-12-14T01:57:05;99726.09;;;8.02;100.00
10060;BME280;5069;49.306;8.636;2023-12-14T02:00:15;99733.09;;;8.01;100.00
10060;BME280;5069;49.306;8.636;2023-12-14T02:03:20;99740.06;;;8.02;100.00
10060;BME280;5069;49.306;8.636;2023-12-14T02:06:21;99742.59;;;8.05;100.00
10060;BME280;5069;49.306;8.636;2023-12-14T02:09:23;99748.69;;;8.06;100.00
10060;BME280;5069;49.306;8.636;2023-12-14T02:12:24;99750.41;;;8.07;100.00
10060;BME280;5069;49.306;8.636;2023-12-14T02:15:26;99749.50;;;8.08;100.00
10060;BME280;5069;49.306;8.636;2023-12-14T02:18:27;99758.28;;;8.07;100.00
10060;BME280;5069;49.306;8.636;2023-12-14T02:21:29;99758.25;;;8.08;100.00
10060;BME280;5069;49.306;8.636;2023-12-14T02:24:30;99759.19;;;8.06;100.00
10060;BME280;5069;49.306;8.636;2023-12-14T02:27:32;99753.94;;;8.06;100.00
10060;BME280;5069;49.306;8.636;2023-12-14T02:30:33;99763.38;;;8.11;100.00
10060;BME280;5069;49.306;8.636;2023-12-14T02:33:35;99766.91;;;8.10;100.00
10060;BME280;5069;49.306;8.636;2023-12-14T02:36:36;99773.13;;;8.08;100.00
10060;BME280;5069;49.306;8.636;2023-12-14T02:39:38;99774.81;;;8.09;100.00
10060;BME280;5069;49.306;8.636;2023-12-14T02:42:39;99784.41;;;8.10;100.00
10060;BME280;5069;49.306;8.636;2023-12-14T02:45:41;99786.06;;;8.14;100.00
10060;BME280;5069;49.306;8.636;2023-12-14T02:48:42;99799.88;;;8.19;100.00
10060;BME280;5069;49.306;8.636;2023-12-14T02:51:45;99794.63;;;8.19;100.00
10060;BME280;5069;49.306;8.636;2023-12-14T02:54:46;99798.22;;;8.16;100.00
10060;BME280;5069;49.306;8.636;2023-12-14T02:57:47;99809.53;;;8.18;100.00
10060;BME280;5069;49.306;8.636;2023-12-14T03:00:49;99802.56;;;8.17;100.00
10060;BME280;5069;49.306;8.636;2023-12-14T03:03:51;99809.69;;;8.14;100.00
10060;BME280;5069;49.306;8.636;2023-12-14T03:06:52;99819.31;;;8.13;100.00
10060;BME280;5069;49.306;8.636;2023-12-14T03:09:55;99818.47;;;8.13;100.00
10060;BME280;5069;49.306;8.636;2023-12-14T03:12:56;99824.50;;;8.15;100.00
10060;BME280;5069;49.306;8.636;2023-12-14T03:15:58;99824.47;;;8.16;100.00
10060;BME280;5069;49.306;8.636;2023-12-14T03:18:59;99831.44;;;8.17;100.00
10060;BME280;5069;49.306;8.636;2023-12-14T03:22:01;99835.81;;;8.17;100.00
10060;BME280;5069;49.306;8.636;2023-12-14T03:25:03;99847.22;;;8.16;100.00
10060;BME280;5069;49.306;8.636;2023-12-14T03:28:04;99851.78;;;8.11;100.00
10060;BME280;5069;49.306;8.636;2023-12-14T03:31:06;99849.25;;;8.08;100.00
10060;BME280;5069;49.306;8.636;2023-12-14T03:34:08;99857.13;;;8.08;100.00
10060;BME280;5069;49.306;8.636;2023-12-14T03:37:09;99857.13;;;8.08;100.00
10060;BME280;5069;49.306;8.636;2023-12-14T03:40:11;99866.84;;;8.04;100.00
10060;BME280;5069;49.306;8.636;2023-12-14T03:43:12;99869.66;;;7.98;100.00
10060;BME280;5069;49.306;8.636;2023-12-14T03:46:14;99875.88;;;7.96;100.00
10060;BME280;5069;49.306;8.636;2023-12-14T03:49:15;99877.50;;;8.00;100.00
10060;BME280;5069;49.306;8.636;2023-12-14T03:52:17;99884.50;;;7.99;100.00
10060;BME280;5069;49.306;8.636;2023-12-14T03:55:18;99887.19;;;7.98;100.00
10060;BME280;5069;49.306;8.636;2023-12-14T03:58:20;99891.38;;;8.03;100.00
10060;BME280;5069;49.306;8.636;2023-12-14T04:01:21;99894.63;;;8.11;100.00
10060;BME280;5069;49.306;8.636;2023-12-14T04:04:23;99905.88;;;8.15;100.00
10060;BME280;5069;49.306;8.636;2023-12-14T04:07:25;99911.31;;;8.09;100.00
10060;BME280;5069;49.306;8.636;2023-12-14T04:10:26;99919.34;;;8.04;100.00
10060;BME280;5069;49.306;8.636;2023-12-14T04:13:28;99916.00;;;7.99;100.00
10060;BME280;5069;49.306;8.636;2023-12-14T04:16:29;99925.63;;;7.99;100.00
10060;BME280;5069;49.306;8.636;2023-12-14T04:19:31;99929.09;;;8.01;100.00
10060;BME280;5069;49.306;8.636;2023-12-14T04:22:32;99932.44;;;8.06;100.00
10060;BME280;5069;49.306;8.636;2023-12-14T04:25:34;99930.63;;;8.08;100.00
10060;BME280;5069;49.306;8.636;2023-12-14T04:28:36;99941.88;;;8.11;100.00
10060;BME280;5069;49.306;8.636;2023-12-14T04:31:37;99949.78;;;8.10;100.00
10060;BME280;5069;49.306;8.636;2023-12-14T04:34:39;99951.53;;;8.11;100.00
10060;BME280;5069;49.306;8.636;2023-12-14T04:37:41;99954.25;;;8.08;100.00
10060;BME280;5069;49.306;8.636;2023-12-14T04:40:42;99962.13;;;8.08;100.00
10060;BME280;5069;49.306;8.636;2023-12-14T04:43:44;99965.56;;;8.10;100.00
10060;BME280;5069;49.306;8.636;2023-12-14T04:46:45;99964.75;;;8.08;100.00
10060;BME280;5069;49.306;8.636;2023-12-14T04:49:47;99966.41;;;8.10;100.00
10060;BME280;5069;49.306;8.636;2023-12-14T04:52:48;99971.63;;;8.12;100.00
10060;BME280;5069;49.306;8.636;2023-12-14T04:55:50;99977.69;;;8.14;100.00
10060;BME280;5069;49.306;8.636;2023-12-14T04:58:51;99974.13;;;8.15;100.00
10060;BME280;5069;49.306;8.636;2023-12-14T05:01:53;99990.81;;;8.14;100.00
10060;BME280;5069;49.306;8.636;2023-12-14T05:04:54;99996.06;;;8.14;100.00
10060;BME280;5069;49.306;8.636;2023-12-14T05:07:56;100005.78;;;8.10;100.00
10060;BME280;5069;49.306;8.636;2023-12-14T05:10:58;100000.56;;;8.09;100.00
10060;BME280;5069;49.306;8.636;2023-12-14T05:14:00;100009.38;;;8.08;100.00
10060;BME280;5069;49.306;8.636;2023-12-14T05:17:01;100006.75;;;8.08;100.00
10060;BME280;5069;49.306;8.636;2023-12-14T05:20:04;100013.78;;;8.07;100.00
10060;BME280;5069;49.306;8.636;2023-12-14T05:23:09;100027.81;;;8.05;100.00
10060;BME280;5069;49.306;8.636;2023-12-14T05:26:11;100027.41;;;7.89;100.00
10060;BME280;5069;49.306;8.636;2023-12-14T05:29:13;100038.78;;;7.89;100.00
10060;BME280;5069;49.306;8.636;2023-12-14T05:32:15;100049.28;;;7.89;100.00
10060;BME280;5069;49.306;8.636;2023-12-14T05:35:16;100044.75;;;7.95;100.00
10060;BME280;5069;49.306;8.636;2023-12-14T05:38:18;100057.13;;;7.91;100.00
10060;BME280;5069;49.306;8.636;2023-12-14T05:41:19;100051.91;;;7.89;100.00
10060;BME280;5069;49.306;8.636;2023-12-14T05:44:21;100057.00;;;7.94;100.00
10060;BME280;5069;49.306;8.636;2023-12-14T05:47:29;100059.59;;;7.96;100.00
10060;BME280;5069;49.306;8.636;2023-12-14T05:50:31;100063.88;;;7.98;100.00
10060;BME280;5069;49.306;8.636;2023-12-14T05:53:33;100075.47;;;7.91;100.00
10060;BME280;5069;49.306;8.636;2023-12-14T05:56:40;100081.81;;;7.82;100.00
10060;BME280;5069;49.306;8.636;2023-12-14T05:59:43;100093.38;;;7.75;100.00
10060;BME280;5069;49.306;8.636;2023-12-14T06:02:44;100103.09;;;7.73;100.00
10060;BME280;5069;49.306;8.636;2023-12-14T06:05:46;100103.16;;;7.70;100.00
10060;BME280;5069;49.306;8.636;2023-12-14T06:08:48;100113.41;;;7.79;100.00
10060;BME280;5069;49.306;8.636;2023-12-14T06:11:50;100122.25;;;7.75;100.00
10060;BME280;5069;49.306;8.636;2023-12-14T06:14:52;100121.31;;;7.78;100.00
10060;BME280;5069;49.306;8.636;2023-12-14T06:17:54;100135.34;;;7.77;100.00
10060;BME280;5069;49.306;8.636;2023-12-14T06:20:55;100129.31;;;7.73;100.00
10060;BME280;5069;49.306;8.636;2023-12-14T06:23:57;100141.53;;;7.74;100.00
10060;BME280;5069;49.306;8.636;2023-12-14T06:27:00;100148.56;;;7.72;100.00
10060;BME280;5069;49.306;8.636;2023-12-14T06:30:02;100148.41;;;7.78;100.00
10060;BME280;5069;49.306;8.636;2023-12-14T06:33:04;100163.22;;;7.81;100.00
10060;BME280;5069;49.306;8.636;2023-12-14T06:36:07;100159.78;;;7.79;100.00
10060;BME280;5069;49.306;8.636;2023-12-14T06:39:09;100172.06;;;7.77;100.00
10060;BME280;5069;49.306;8.636;2023-12-14T06:42:11;100180.13;;;7.69;100.00
10060;BME280;5069;49.306;8.636;2023-12-14T06:45:13;100193.22;;;7.71;100.00
10060;BME280;5069;49.306;8.636;2023-12-14T06:48:14;100193.09;;;7.75;100.00
10060;BME280;5069;49.306;8.636;2023-12-14T06:51:16;100197.53;;;7.73;100.00
10060;BME280;5069;49.306;8.636;2023-12-14T06:54:18;100199.31;;;7.71;100.00
10060;BME280;5069;49.306;8.636;2023-12-14T06:57:20;100201.91;;;7.73;100.00
10060;BME280;5069;49.306;8.636;2023-12-14T07:00:24;100204.53;;;7.73;100.00
10060;BME280;5069;49.306;8.636;2023-12-14T07:03:26;100214.03;;;7.77;100.00
10060;BME280;5069;49.306;8.636;2023-12-14T07:06:27;100214.03;;;7.77;100.00
10060;BME280;5069;49.306;8.636;2023-12-14T07:09:29;100223.66;;;7.78;100.00
10060;BME280;5069;49.306;8.636;2023-12-14T07:12:30;100226.31;;;7.76;100.00
10060;BME280;5069;49.306;8.636;2023-12-14T07:15:32;100238.56;;;7.76;100.00
10060;BME280;5069;49.306;8.636;2023-12-14T07:18:37;100243.69;;;7.80;100.00
10060;BME280;5069;49.306;8.636;2023-12-14T07:21:39;100254.09;;;7.85;100.00
10060;BME280;5069;49.306;8.636;2023-12-14T07:24:41;100258.47;;;7.84;100.00
10060;BME280;5069;49.306;8.636;2023-12-14T07:27:53;100253.13;;;7.87;100.00
10060;BME280;5069;49.306;8.636;2023-12-14T07:30:55;100263.63;;;7.87;100.00
10060;BME280;5069;49.306;8.636;2023-12-14T07:33:56;100269.59;;;7.94;100.00
10060;BME280;5069;49.306;8.636;2023-12-14T07:36:58;100268.69;;;7.97;100.00
10060;BME280;5069;49.306;8.636;2023-12-14T07:40:00;100273.94;;;7.97;100.00
10060;BME280;5069;49.306;8.636;2023-12-14T07:43:01;100281.72;;;8.00;100.00
10060;BME280;5069;49.306;8.636;2023-12-14T07:46:03;100284.34;;;8.00;100.00
10060;BME280;5069;49.306;8.636;2023-12-14T07:49:05;100293.09;;;7.99;100.00
10060;BME280;5069;49.306;8.636;2023-12-14T07:52:06;100304.63;;;7.93;100.00
10060;BME280;5069;49.306;8.636;2023-12-14T07:55:08;100307.22;;;7.95;100.00
10060;BME280;5069;49.306;8.636;2023-12-14T07:58:09;100311.56;;;7.96;100.00
10060;BME280;5069;49.306;8.636;2023-12-14T08:01:11;100315.84;;;8.00;100.00
10060;BME280;5069;49.306;8.636;2023-12-14T08:04:12;100318.47;;;7.98;100.00
10060;BME280;5069;49.306;8.636;2023-12-14T08:07:14;100327.19;;;8.00;100.00
10060;BME280;5069;49.306;8.636;2023-12-14T08:10:15;100339.28;;;8.07;100.00
10060;BME280;5069;49.306;8.636;2023-12-14T08:13:17;100342.78;;;8.08;100.00
10060;BME280;5069;49.306;8.636;2023-12-14T08:16:19;100354.00;;;8.14;100.00
10060;BME280;5069;49.306;8.636;2023-12-14T08:19:21;100365.34;;;8.15;100.00
10060;BME280;5069;49.306;8.636;2023-12-14T08:22:23;100368.78;;;8.17;100.00
10060;BME280;5069;49.306;8.636;2023-12-14T08:25:24;100367.97;;;8.15;100.00
10060;BME280;5069;49.306;8.636;2023-12-14T08:28:27;100378.47;;;8.15;100.00
10060;BME280;5069;49.306;8.636;2023-12-14T08:31:28;100381.81;;;8.21;100.00
10060;BME280;5069;49.306;8.636;2023-12-14T08:34:30;100388.88;;;8.19;100.00
10060;BME280;5069;49.306;8.636;2023-12-14T08:37:31;100384.56;;;8.17;100.00
10060;BME280;5069;49.306;8.636;2023-12-14T08:40:33;100402.09;;;8.15;100.00
10060;BME280;5069;49.306;8.636;2023-12-14T08:43:34;100403.94;;;8.11;100.00
10060;BME280;5069;49.306;8.636;2023-12-14T08:46:41;100404.72;;;8.15;100.00
10060;BME280;5069;49.306;8.636;2023-12-14T08:49:43;100415.16;;;8.18;100.00
10060;BME280;5069;49.306;8.636;2023-12-14T08:52:44;100421.28;;;8.18;100.00
10060;BME280;5069;49.306;8.636;2023-12-14T08:55:46;100429.13;;;8.20;100.00
10060;BME280;5069;49.306;8.636;2023-12-14T08:58:47;100440.56;;;8.17;100.00
10060;BME280;5069;49.306;8.636;2023-12-14T09:01:50;100451.03;;;8.19;100.00
10060;BME280;5069;49.306;8.636;2023-12-14T09:04:51;100450.03;;;8.24;100.00
10060;BME280;5069;49.306;8.636;2023-12-14T09:07:53;100456.84;;;8.33;100.00
10060;BME280;5069;49.306;8.636;2023-12-14T09:10:57;100463.78;;;8.37;100.00
10060;BME280;5069;49.306;8.636;2023-12-14T09:13:59;100470.66;;;8.43;100.00
10060;BME280;5069;49.306;8.636;2023-12-14T09:17:00;100473.03;;;8.52;100.00
10060;BME280;5069;49.306;8.636;2023-12-14T09:20:02;100476.38;;;8.60;100.00
10060;BME280;5069;49.306;8.636;2023-12-14T09:23:06;100484.34;;;8.55;100.00
10060;BME280;5069;49.306;8.636;2023-12-14T09:26:08;100490.44;;;8.56;100.00
10060;BME280;5069;49.306;8.636;2023-12-14T09:29:09;100497.31;;;8.61;100.00
10060;BME280;5069;49.306;8.636;2023-12-14T09:32:11;100503.44;;;8.62;100.00
10060;BME280;5069;49.306;8.636;2023-12-14T09:35:13;100508.72;;;8.60;100.00
10060;BME280;5069;49.306;8.636;2023-12-14T09:38:14;100510.47;;;8.61;100.00
10060;BME280;5069;49.306;8.636;2023-12-14T09:41:18;100521.81;;;8.63;100.00
10060;BME280;5069;49.306;8.636;2023-12-14T09:44:20;100519.22;;;8.62;100.00
10060;BME280;5069;49.306;8.636;2023-12-14T09:47:23;100517.44;;;8.62;100.00
10060;BME280;5069;49.306;8.636;2023-12-14T09:50:24;100530.47;;;8.67;100.00
10060;BME280;5069;49.306;8.636;2023-12-14T09:53:26;100533.84;;;8.72;100.00
10060;BME280;5069;49.306;8.636;2023-12-14T09:56:27;100539.94;;;8.76;100.00
10060;BME280;5069;49.306;8.636;2023-12-14T09:59:29;100541.81;;;8.70;100.00
10060;BME280;5069;49.306;8.636;2023-12-14T10:02:30;100546.03;;;8.76;100.00
10060;BME280;5069;49.306;8.636;2023-12-14T10:05:32;100542.81;;;8.65;100.00
10060;BME280;5069;49.306;8.636;2023-12-14T10:08:34;100551.47;;;8.68;100.00
10060;BME280;5069;49.306;8.636;2023-12-14T10:11:36;100560.94;;;8.76;100.00
10060;BME280;5069;49.306;8.636;2023-12-14T10:14:38;100557.34;;;8.80;100.00
10060;BME280;5069;49.306;8.636;2023-12-14T10:17:42;100560.81;;;8.82;100.00
10060;BME280;5069;49.306;8.636;2023-12-14T10:20:44;100565.19;;;8.81;100.00
10060;BME280;5069;49.306;8.636;2023-12-14T10:23:48;100560.81;;;8.82;100.00
10060;BME280;5069;49.306;8.636;2023-12-14T10:26:49;100563.28;;;8.88;100.00
10060;BME280;5069;49.306;8.636;2023-12-14T10:29:52;100566.06;;;8.82;100.00
10060;BME280;5069;49.306;8.636;2023-12-14T10:32:53;100569.66;;;8.78;100.00
10060;BME280;5069;49.306;8.636;2023-12-14T10:35:56;100566.06;;;8.82;100.00
10060;BME280;5069;49.306;8.636;2023-12-14T10:38:59;100582.66;;;8.84;100.00
10060;BME280;5069;49.306;8.636;2023-12-14T10:42:03;100580.00;;;8.85;100.00
10060;BME280;5069;49.306;8.636;2023-12-14T10:45:21;100579.00;;;8.89;100.00
10060;BME280;5069;49.306;8.636;2023-12-14T10:48:28;100589.50;;;8.91;100.00
10060;BME280;5069;49.306;8.636;2023-12-14T10:51:31;100593.84;;;8.92;100.00
10060;BME280;5069;49.306;8.636;2023-12-14T10:54:34;100587.72;;;8.91;100.00
10060;BME280;5069;49.306;8.636;2023-12-14T10:57:38;100607.63;;;9.03;100.00
10060;BME280;5069;49.306;8.636;2023-12-14T11:00:43;100604.22;;;8.98;100.00
10060;BME280;5069;49.306;8.636;2023-12-14T11:03:47;100608.59;;;8.99;100.00
10060;BME280;5069;49.306;8.636;2023-12-14T11:06:53;100602.34;;;9.03;100.00
10060;BME280;5069;49.306;8.636;2023-12-14T11:09:55;100606.91;;;8.95;100.00
10060;BME280;5069;49.306;8.636;2023-12-14T11:13:00;100613.19;;;8.89;100.00
10060;BME280;5069;49.306;8.636;2023-12-14T11:16:03;100615.81;;;8.89;100.00
10060;BME280;5069;49.306;8.636;2023-12-14T11:19:29;100623.69;;;8.89;100.00
10060;BME280;5069;49.306;8.636;2023-12-14T11:22:31;100627.13;;;8.93;100.00
10060;BME280;5069;49.306;8.636;2023-12-14T11:25:32;100628.03;;;8.92;100.00
10060;BME280;5069;49.306;8.636;2023-12-14T11:28:48;100632.03;;;9.08;100.00
10060;BME280;5069;49.306;8.636;2023-12-14T11:31:50;100639.59;;;9.22;100.00
10060;BME280;5069;49.306;8.636;2023-12-14T11:34:52;100648.38;;;9.21;100.00
10060;BME280;5069;49.306;8.636;2023-12-14T11:37:53;100650.19;;;9.19;100.00
10060;BME280;5069;49.306;8.636;2023-12-14T11:41:01;100653.66;;;9.21;100.00
10060;BME280;5069;49.306;8.636;2023-12-14T11:44:03;100654.53;;;9.21;100.00
10060;BME280;5069;49.306;8.636;2023-12-14T11:47:05;100657.97;;;9.23;100.00
10060;BME280;5069;49.306;8.636;2023-12-14T11:50:07;100663.22;;;9.23;100.00
10060;BME280;5069;49.306;8.636;2023-12-14T11:53:10;100659.78;;;9.21;100.00
10060;BME280;5069;49.306;8.636;2023-12-14T11:56:13;100664.00;;;9.28;100.00
10060;BME280;5069;49.306;8.636;2023-12-14T11:59:18;100662.22;;;9.29;100.00
10060;BME280;5069;49.306;8.636;2023-12-14T12:02:23;100676.22;;;9.29;100.00
10060;BME280;5069;49.306;8.636;2023-12-14T12:05:37;100664.31;;;9.15;100.00
10060;BME280;5069;49.306;8.636;2023-12-14T12:08:42;100672.22;;;9.13;100.00
10060;BME280;5069;49.306;8.636;2023-12-14T12:11:44;100671.59;;;9.03;100.00
10060;BME280;5069;49.306;8.636;2023-12-14T12:14:46;100671.44;;;9.09;100.00
10060;BME280;5069;49.306;8.636;2023-12-14T12:17:48;100681.97;;;9.09;100.00
10060;BME280;5069;49.306;8.636;2023-12-14T12:20:50;100680.00;;;9.18;100.00
10060;BME280;5069;49.306;8.636;2023-12-14T12:23:51;100692.38;;;9.14;100.00
10060;BME280;5069;49.306;8.636;2023-12-14T12:26:54;100687.03;;;9.17;100.00
10060;BME280;5069;49.306;8.636;2023-12-14T12:29:56;100688.66;;;9.23;100.00
10060;BME280;5069;49.306;8.636;2023-12-14T12:32:57;100691.41;;;9.18;100.00
10060;BME280;5069;49.306;8.636;2023-12-14T12:35:59;100699.41;;;9.13;100.00
10060;BME280;5069;49.306;8.636;2023-12-14T12:39:02;100698.13;;;9.31;100.00
10060;BME280;5069;49.306;8.636;2023-12-14T12:42:04;100705.31;;;9.23;100.00
10060;BME280;5069;49.306;8.636;2023-12-14T12:45:06;100695.41;;;9.34;100.00
10060;BME280;5069;49.306;8.636;2023-12-14T12:48:08;100693.84;;;9.27;100.00
10060;BME280;5069;49.306;8.636;2023-12-14T12:51:10;100699.34;;;9.17;100.00
10060;BME280;5069;49.306;8.636;2023-12-14T12:54:12;100701.91;;;9.18;100.00
10060;BME280;5069;49.306;8.636;2023-12-14T12:57:14;100707.19;;;9.18;100.00
10060;BME280;5069;49.306;8.636;2023-12-14T13:00:16;100712.38;;;9.21;100.00
10060;BME280;5069;49.306;8.636;2023-12-14T13:03:17;100711.53;;;9.21;100.00
10060;BME280;5069;49.306;8.636;2023-12-14T13:06:19;100722.84;;;9.23;100.00
10060;BME280;5069;49.306;8.636;2023-12-14T13:09:21;100729.91;;;9.22;100.00
10060;BME280;5069;49.306;8.636;2023-12-14T13:12:24;100726.34;;;9.23;100.00
10060;BME280;5069;49.306;8.636;2023-12-14T13:15:25;100731.59;;;9.23;100.00
10060;BME280;5069;49.306;8.636;2023-12-14T13:18:28;100730.03;;;9.16;100.00
10060;BME280;5069;49.306;8.636;2023-12-14T13:21:30;100730.19;;;9.10;100.00
10060;BME280;5069;49.306;8.636;2023-12-14T13:24:31;100732.84;;;9.07;100.00
10060;BME280;5069;49.306;8.636;2023-12-14T13:27:33;100742.63;;;9.02;100.00
10060;BME280;5069;49.306;8.636;2023-12-14T13:30:38;100739.31;;;8.94;100.00
10060;BME280;5069;49.306;8.636;2023-12-14T13:33:39;100741.00;;;8.95;100.00
10060;BME280;5069;49.306;8.636;2023-12-14T13:36:41;100747.13;;;8.95;100.00
10060;BME280;5069;49.306;8.636;2023-12-14T13:39:43;100745.41;;;8.94;100.00
10060;BME280;5069;49.306;8.636;2023-12-14T13:42:44;100753.22;;;8.99;100.00
10060;BME280;5069;49.306;8.636;2023-12-14T13:46:00;100758.53;;;8.94;100.00
10060;BME280;5069;49.306;8.636;2023-12-14T13:49:17;100753.25;;;8.96;100.00
10060;BME280;5069;49.306;8.636;2023-12-14T13:52:19;100755.03;;;8.95;100.00
10060;BME280;5069;49.306;8.636;2023-12-14T13:55:27;100765.72;;;8.88;100.00
10060;BME280;5069;49.306;8.636;2023-12-14T13:58:28;100769.25;;;8.87;100.00
10060;BME280;5069;49.306;8.636;2023-12-14T14:01:32;100762.38;;;8.80;100.00
10060;BME280;5069;49.306;8.636;2023-12-14T14:04:33;100765.03;;;8.78;100.00
10060;BME280;5069;49.306;8.636;2023-12-14T14:07:35;100773.88;;;8.74;100.00
10060;BME280;5069;49.306;8.636;2023-12-14T14:10:37;100776.44;;;8.77;100.00
10060;BME280;5069;49.306;8.636;2023-12-14T14:13:38;100784.38;;;8.76;100.00
10060;BME280;5069;49.306;8.636;2023-12-14T14:16:40;100797.41;;;8.80;100.00
10060;BME280;5069;49.306;8.636;2023-12-14T14:19:41;100809.75;;;8.77;100.00
10060;BME280;5069;49.306;8.636;2023-12-14T14:22:43;100809.81;;;8.74;100.00
10060;BME280;5069;49.306;8.636;2023-12-14T14:25:45;100828.97;;;8.79;100.00
10060;BME280;5069;49.306;8.636;2023-12-14T14:28:47;100829.91;;;8.76;100.00
10060;BME280;5069;49.306;8.636;2023-12-14T14:31:48;100840.44;;;8.76;100.00
10060;BME280;5069;49.306;8.636;2023-12-14T14:34:50;100851.94;;;8.69;100.00
10060;BME280;5069;49.306;8.636;2023-12-14T14:37:52;100844.94;;;8.69;100.00
10060;BME280;5069;49.306;8.636;2023-12-14T14:40:54;100857.28;;;8.64;100.00
10060;BME280;5069;49.306;8.636;2023-12-14T14:43:55;100866.06;;;8.63;100.00
10060;BME280;5069;49.306;8.636;2023-12-14T14:46:58;100873.94;;;8.63;100.00
10060;BME280;5069;49.306;8.636;2023-12-14T14:50:00;100876.63;;;8.60;100.00
10060;BME280;5069;49.306;8.636;2023-12-14T14:53:05;100877.44;;;8.64;100.00
10060;BME280;5069;49.306;8.636;2023-12-14T14:56:07;100887.97;;;8.62;100.00
10060;BME280;5069;49.306;8.636;2023-12-14T14:59:09;100888.84;;;8.64;100.00
10060;BME280;5069;49.306;8.636;2023-12-14T15:02:12;100902.78;;;8.68;100.00
10060;BME280;5069;49.306;8.636;2023-12-14T15:05:14;100907.06;;;8.72;100.00
10060;BME280;5069;49.306;8.636;2023-12-14T15:08:15;100908.88;;;8.70;100.00
10060;BME280;5069;49.306;8.636;2023-12-14T15:11:17;100921.28;;;8.62;100.00
10060;BME280;5069;49.306;8.636;2023-12-14T15:14:18;100913.50;;;8.54;100.00
10060;BME280;5069;49.306;8.636;2023-12-14T15:17:20;100920.56;;;8.52;100.00
10060;BME280;5069;49.306;8.636;2023-12-14T15:20:21;100926.84;;;8.44;100.00
10060;BME280;5069;49.306;8.636;2023-12-14T15:23:23;100932.06;;;8.45;100.00
10060;BME280;5069;49.306;8.636;2023-12-14T15:26:25;100939.16;;;8.42;100.00
10060;BME280;5069;49.306;8.636;2023-12-14T15:29:27;100947.03;;;8.40;100.00
10060;BME280;5069;49.306;8.636;2023-12-14T15:32:28;100955.88;;;8.36;100.00
10060;BME280;5069;49.306;8.636;2023-12-14T15:35:30;100954.13;;;8.35;100.00
10060;BME280;5069;49.306;8.636;2023-12-14T15:38:31;100955.97;;;8.30;100.00
10060;BME280;5069;49.306;8.636;2023-12-14T15:41:33;100966.53;;;8.25;100.00
10060;BME280;5069;49.306;8.636;2023-12-14T15:44:34;100965.81;;;8.14;100.00
10060;BME280;5069;49.306;8.636;2023-12-14T15:47:36;100985.94;;;8.14;100.00
10060;BME280;5069;49.306;8.636;2023-12-14T15:50:37;100982.50;;;8.09;100.00
10060;BME280;5069;49.306;8.636;2023-12-14T15:53:40;100985.13;;;8.09;100.00
10060;BME280;5069;49.306;8.636;2023-12-14T15:56:41;100989.53;;;8.07;100.00
10060;BME280;5069;49.306;8.636;2023-12-14T15:59:43;101002.69;;;8.05;100.00
10060;BME280;5069;49.306;8.636;2023-12-14T16:02:44;100998.38;;;8.00;100.00
10060;BME280;5069;49.306;8.636;2023-12-14T16:05:46;101013.19;;;8.05;100.00
10060;BME280;5069;49.306;8.636;2023-12-14T16:08:47;101018.44;;;8.04;100.00